Amelia, VA

10:44 AM EDT on August 30, 2014 (GMT -0400)
Woodlake - Orchard Grove | Change Station
CLOSE
Current Station
Personal Weather Station
Location: Midlothian, VA
Elevation: 230 ft
Nearby Weather Stations

Elev 230 ft 37.42 °N, 77.69 °W | Updated 6 seconds ago

Overcast
Overcast
77.0 °F
Feels Like 79 °F
N
1.1
Wind Variable Wind from WSW
Gusts 3.1 mph

Today
High -- | Low -- °F
--% Chance of Precip.
Yesterday
High -- | Low -- °F
Precip. -- in
6:40 AM 7:43 PM
Waxing Crescent, 22% visible
Pressure 30.26 in
Visibility 10.0 miles
Clouds Overcast 1900 ft
Heat Index 79 °F
Dew Point 68 °F
Humidity 74%
Rainfall 0.00 in
Snow Depth Not available.
UV 1 out of 12
Pollen 9.60 out of 12
Air Quality Not available.
Flu Activity Not available.
METAR KFCI 301355Z AUTO 16004KT 10SM OVC019 23/14 A3026 RMK AO1

More Conditions Fewer Conditions

Pressure 30.26 in
Visibility 10.0 miles
Clouds Overcast 1900 ft
Heat Index 79 °F
Dew Point 68 °F
Humidity 74%
Rainfall 0.00 in
Snow Depth Not available.
UV 1 out of 12
Pollen 9.60 out of 12
Air Quality Not available.
Flu Activity Not available.
METAR KFCI 301355Z AUTO 16004KT 10SM OVC019 23/14 A3026 RMK AO1

More Conditions Fewer Conditions

10-Day Weather Forecast

Almanac

Astronomy

Aug. 30, 2014 Rise Set
Actual Time 6:40 AM EDT 7:43 PM EDT
Civil Twilight 6:13 AM EDT 8:10 PM EDT
Nautical Twilight 5:41 AM EDT 8:41 PM EDT
Astronomical Twilight 5:08 AM EDT 9:14 PM EDT
Moon 11:19 AM EDT 10:23 PM EDT
Length of Visible Light 13h 56m
Length of Day
13h 03m
Tomorrow will be 2m 17s shorter.
Waxing Crescent, 22% of the Moon is Illuminated
Today
Waxing Crescent
Sep 2
First Quarter
Sep 8
Full
Sep 15
Last Quarter
Sep 24
New

Today's Extremes

State Highs State Lows

Community

WunderPhotos

Upload Photos

1,748,528 photos uploaded!

WunderBlogs® & News

Nearby

Snow Depth

Station Depth Elevation
No new snow has been reported.

Earthquake Activity

City Distance Mag. Time & Date
No recent earthquake activity has been reported nearby.
Minimum magnitude displayed is 2.5.

Coastal Water Temperatures

Place Temperature
No Stations Reporting

Nearby Weather Stations